createdAt,value
2022-12-03T00:00:23.957Z,101365.22
2022-12-03T00:03:11.719Z,101369.84
2022-12-03T00:05:59.160Z,101372.03
2022-12-03T00:08:46.718Z,101379.66
2022-12-03T00:11:34.386Z,101385.34
2022-12-03T00:14:21.933Z,101386.72
2022-12-03T00:17:10.096Z,101392.16
2022-12-03T00:19:57.603Z,101399.78
2022-12-03T00:22:45.194Z,101397.06
2022-12-03T00:25:32.763Z,101403.06
2022-12-03T00:28:20.339Z,101403.88
2022-12-03T00:31:07.999Z,101402.50
2022-12-03T00:33:56.285Z,101411.78
2022-12-03T00:36:43.701Z,101413.41
2022-12-03T00:39:31.333Z,101414.22
2022-12-03T00:42:18.826Z,101412.91
2022-12-03T00:45:06.623Z,101422.16
2022-12-03T00:47:54.148Z,101413.97
2022-12-03T00:50:41.554Z,101420.78
2022-12-03T00:53:29.053Z,101424.34
2022-12-03T00:56:16.517Z,101424.91
2022-12-03T00:59:04.042Z,101424.88
2022-12-03T01:01:51.601Z,101427.06
2022-12-03T01:04:39.509Z,101421.06
2022-12-03T01:07:27.217Z,101428.72
2022-12-03T01:10:14.833Z,101421.63
2022-12-03T01:13:02.318Z,101417.81
2022-12-03T01:15:49.996Z,101418.88
2022-12-03T01:18:37.612Z,101421.63
2022-12-03T01:21:25.113Z,101423.00
2022-12-03T01:24:12.726Z,101412.91
2022-12-03T01:27:01.164Z,101415.06
2022-12-03T01:29:48.768Z,101416.41
2022-12-03T01:32:36.208Z,101422.41
2022-12-03T01:35:23.733Z,101427.03
2022-12-03T01:38:11.211Z,101426.78
2022-12-03T01:40:58.797Z,101427.03
2022-12-03T01:43:46.575Z,101425.41
2022-12-03T01:46:41.237Z,101430.56
2022-12-03T01:49:36.174Z,101434.16
2022-12-03T01:52:27.275Z,101439.34
2022-12-03T01:55:16.586Z,101439.34
2022-12-03T01:58:04.398Z,101438.50
2022-12-03T02:00:52.003Z,101437.69
2022-12-03T02:03:39.688Z,101438.75
2022-12-03T02:06:28.968Z,101438.78
2022-12-03T02:09:16.573Z,101441.53
2022-12-03T02:12:05.977Z,101438.00
2022-12-03T02:14:54.767Z,101434.19
2022-12-03T02:17:43.157Z,101432.00
2022-12-03T02:20:38.850Z,101436.06
2022-12-03T02:23:34.898Z,101436.91
2022-12-03T02:26:22.421Z,101435.28
2022-12-03T02:29:09.854Z,101436.06
2022-12-03T02:31:57.884Z,101434.69
2022-12-03T02:34:46.177Z,101444.50
2022-12-03T02:37:36.436Z,101432.25
2022-12-03T02:40:26.354Z,101433.59
2022-12-03T02:43:15.140Z,101435.25
2022-12-03T02:46:04.197Z,101442.88
2022-12-03T02:48:51.847Z,101443.97
2022-12-03T02:51:39.308Z,101440.13
2022-12-03T02:54:26.833Z,101442.34
2022-12-03T02:57:14.419Z,101440.69
2022-12-03T03:00:02.205Z,101447.81
2022-12-03T03:02:51.113Z,101436.59
2022-12-03T03:05:40.089Z,101429.75
2022-12-03T03:08:28.846Z,101437.97
2022-12-03T03:11:16.463Z,101437.16
2022-12-03T03:14:04.022Z,101429.78
2022-12-03T03:16:56.348Z,101434.44
2022-12-03T03:19:43.999Z,101431.44
2022-12-03T03:22:35.446Z,101434.19
2022-12-03T03:25:25.041Z,101431.19
2022-12-03T03:28:13.280Z,101428.97
2022-12-03T03:31:02.805Z,101434.16
2022-12-03T03:33:51.113Z,101444.50
2022-12-03T03:36:39.065Z,101434.16
2022-12-03T03:39:26.624Z,101435.78
2022-12-03T03:42:14.249Z,101435.25
2022-12-03T03:45:02.073Z,101434.44
2022-12-03T03:47:49.795Z,101436.31
2022-12-03T03:50:37.364Z,101444.81
2022-12-03T03:53:24.930Z,101440.72
2022-12-03T03:56:12.658Z,101444.50
2022-12-03T03:59:00.170Z,101442.88
2022-12-03T04:01:47.733Z,101445.31
2022-12-03T04:04:37.986Z,101444.50
2022-12-03T04:07:25.675Z,101446.41
2022-12-03T04:10:33.167Z,101448.31
2022-12-03T04:13:20.787Z,101447.22
2022-12-03T04:16:08.477Z,101445.59
2022-12-03T04:18:56.061Z,101447.78
2022-12-03T04:22:02.301Z,101445.06
2022-12-03T04:24:49.771Z,101449.72
2022-12-03T04:27:55.628Z,101440.16
2022-12-03T04:30:43.122Z,101436.91
2022-12-03T04:33:48.759Z,101425.41
2022-12-03T04:36:36.458Z,101431.69
2022-12-03T04:39:23.909Z,101432.50
2022-12-03T04:42:11.578Z,101437.13
2022-12-03T04:44:59.095Z,101443.44
2022-12-03T04:47:46.617Z,101456.81
2022-12-03T04:50:34.077Z,101457.59
2022-12-03T04:53:21.578Z,101460.03
2022-12-03T04:56:09.065Z,101463.28
2022-12-03T04:58:56.660Z,101472.56
2022-12-03T05:01:44.774Z,101468.50
2022-12-03T05:04:32.310Z,101470.94
2022-12-03T05:07:19.828Z,101467.41
2022-12-03T05:10:07.543Z,101470.66
2022-12-03T05:12:55.156Z,101462.50
2022-12-03T05:15:42.862Z,101462.53
2022-12-03T05:18:30.319Z,101468.75
2022-12-03T05:21:18.770Z,101473.94
2022-12-03T05:24:06.546Z,101472.88
2022-12-03T05:26:54.045Z,101474.81
2022-12-03T05:29:41.541Z,101478.91
2022-12-03T05:32:29.212Z,101483.28
2022-12-03T05:35:16.832Z,101478.63
2022-12-03T05:38:04.439Z,101475.88
2022-12-03T05:40:51.915Z,101488.94
2022-12-03T05:43:39.397Z,101489.75
2022-12-03T05:46:26.911Z,101483.25
2022-12-03T05:49:15.631Z,101493.31
2022-12-03T05:52:03.591Z,101488.13
2022-12-03T05:54:51.245Z,101493.03
2022-12-03T05:57:39.094Z,101491.94
2022-12-03T06:00:28.399Z,101500.09
2022-12-03T06:03:16.077Z,101496.56
2022-12-03T06:06:03.683Z,101506.69
2022-12-03T06:08:51.275Z,101492.47
2022-12-03T06:11:40.180Z,101489.22
2022-12-03T06:14:27.849Z,101482.13
2022-12-03T06:17:15.594Z,101490.56
2022-12-03T06:20:03.464Z,101493.34
2022-12-03T06:22:53.531Z,101501.22
2022-12-03T06:25:42.344Z,101499.63
2022-12-03T06:28:39.156Z,101495.25
2022-12-03T06:31:26.932Z,101503.94
2022-12-03T06:34:14.534Z,101509.38
2022-12-03T06:37:02.187Z,101511.56
2022-12-03T06:39:49.616Z,101512.72
2022-12-03T06:42:37.349Z,101514.03
2022-12-03T06:45:27.758Z,101508.00
2022-12-03T06:48:16.682Z,101507.25
2022-12-03T06:51:04.474Z,101508.34
2022-12-03T06:53:51.988Z,101509.44
2022-12-03T06:56:45.367Z,101520.09
2022-12-03T06:59:36.901Z,101512.97
2022-12-03T07:02:24.636Z,101507.25
2022-12-03T07:05:12.793Z,101514.88
2022-12-03T07:08:00.481Z,101514.38
2022-12-03T07:10:48.029Z,101513.28
2022-12-03T07:13:35.670Z,101508.69
2022-12-03T07:16:23.230Z,101516.59
2022-12-03T07:19:11.133Z,101515.50
2022-12-03T07:22:01.063Z,101508.41
2022-12-03T07:24:48.676Z,101516.59
2022-12-03T07:27:41.021Z,101514.41
2022-12-03T07:30:31.757Z,101515.25
2022-12-03T07:33:21.558Z,101510.63
2022-12-03T07:36:12.203Z,101500.78
2022-12-03T07:39:02.390Z,101509.00
2022-12-03T07:41:49.987Z,101505.72
2022-12-03T07:44:37.517Z,101511.72
2022-12-03T07:47:27.626Z,101517.72
2022-12-03T07:50:16.147Z,101521.28
2022-12-03T07:53:03.868Z,101515.25
2022-12-03T07:55:51.474Z,101516.91
2022-12-03T07:58:39.057Z,101515.78
2022-12-03T08:01:26.780Z,101514.16
2022-12-03T08:04:15.206Z,101514.16
2022-12-03T08:07:02.680Z,101508.44
2022-12-03T08:09:50.674Z,101515.78
2022-12-03T08:12:41.953Z,101523.97
2022-12-03T08:15:36.938Z,101518.78
2022-12-03T08:18:28.272Z,101512.50
2022-12-03T08:21:19.078Z,101519.34
2022-12-03T08:24:12.913Z,101516.59
2022-12-03T08:27:00.974Z,101524.78
2022-12-03T08:29:48.524Z,101519.88
2022-12-03T08:32:36.321Z,101515.75
2022-12-03T08:35:25.362Z,101514.69
2022-12-03T08:38:13.154Z,101514.41
2022-12-03T08:41:00.610Z,101509.72
2022-12-03T08:43:49.336Z,101513.00
2022-12-03T08:46:36.957Z,101517.06
2022-12-03T08:49:24.477Z,101513.00
2022-12-03T08:52:15.418Z,101514.91
2022-12-03T08:55:23.857Z,101508.34
2022-12-03T08:58:25.515Z,101522.53
2022-12-03T09:01:13.150Z,101526.34
2022-12-03T09:04:20.534Z,101520.28
2022-12-03T09:07:11.162Z,101520.84
2022-12-03T09:09:58.726Z,101515.06
2022-12-03T09:12:46.325Z,101509.66
2022-12-03T09:15:33.895Z,101508.84
2022-12-03T09:18:21.974Z,101512.66
2022-12-03T09:21:09.360Z,101513.16
2022-12-03T09:23:59.441Z,101518.72
2022-12-03T09:26:46.980Z,101521.41
2022-12-03T09:29:34.587Z,101520.88
2022-12-03T09:32:22.256Z,101519.50
2022-12-03T09:35:10.025Z,101519.22
2022-12-03T09:37:57.485Z,101517.88
2022-12-03T09:40:45.012Z,101518.06
2022-12-03T09:44:02.779Z,101521.09
2022-12-03T09:46:42.861Z,101512.63
2022-12-03T09:49:32.183Z,101516.44
2022-12-03T09:52:27.441Z,101518.31
2022-12-03T09:55:17.076Z,101513.66
2022-12-03T09:58:10.210Z,101510.34
2022-12-03T10:00:58.298Z,101503.78
2022-12-03T10:03:50.465Z,101501.63
2022-12-03T10:06:43.950Z,101496.97
2022-12-03T10:09:33.306Z,101489.63
2022-12-03T10:12:27.543Z,101496.38
2022-12-03T10:15:16.476Z,101503.00
2022-12-03T10:18:16.233Z,101493.94
2022-12-03T10:21:03.990Z,101489.03
2022-12-03T10:24:11.399Z,101495.28
2022-12-03T10:27:04.330Z,101493.13
2022-12-03T10:29:59.086Z,101493.13
2022-12-03T10:32:48.099Z,101492.34
2022-12-03T10:35:39.912Z,101490.69
2022-12-03T10:38:27.520Z,101494.00
2022-12-03T10:41:28.093Z,101490.69
2022-12-03T10:44:17.121Z,101494.81
2022-12-03T10:47:06.270Z,101491.53
2022-12-03T10:50:01.901Z,101494.50
2022-12-03T10:52:49.494Z,101489.56
2022-12-03T10:55:40.223Z,101484.16
2022-12-03T10:58:29.191Z,101482.47
2022-12-03T11:01:23.253Z,101482.22
2022-12-03T11:04:21.196Z,101479.84
2022-12-03T11:07:17.484Z,101475.94
2022-12-03T11:10:06.487Z,101485.25
2022-12-03T11:13:12.602Z,101481.09
2022-12-03T11:16:04.582Z,101485.25
2022-12-03T11:18:55.103Z,101466.06
2022-12-03T11:22:01.073Z,101474.31
2022-12-03T11:25:08.558Z,101467.28
2022-12-03T11:28:14.852Z,101472.22
2022-12-03T11:31:09.999Z,101466.47
2022-12-03T11:34:19.813Z,101471.63
2022-12-03T11:37:12.870Z,101464.78
2022-12-03T11:40:21.962Z,101467.22
2022-12-03T11:43:13.022Z,101471.53
2022-12-03T11:46:08.279Z,101469.38
2022-12-03T11:48:57.480Z,101469.44
2022-12-03T11:51:45.409Z,101466.50
2022-12-03T11:54:34.821Z,101468.72
2022-12-03T11:57:27.805Z,101463.25
2022-12-03T12:00:23.064Z,101467.59
2022-12-03T12:03:21.493Z,101464.31
2022-12-03T12:06:10.434Z,101470.63
2022-12-03T12:08:59.025Z,101468.91
2022-12-03T12:11:49.055Z,101471.41
2022-12-03T12:14:36.827Z,101464.88
2022-12-03T12:17:31.879Z,101464.91
2022-12-03T12:20:23.188Z,101463.25
2022-12-03T12:23:21.795Z,101466.78
2022-12-03T12:26:14.201Z,101470.34
2022-12-03T12:29:04.187Z,101466.78
2022-12-03T12:32:23.455Z,101468.09
2022-12-03T12:35:19.772Z,101464.88
2022-12-03T12:38:16.769Z,101468.13
2022-12-03T12:41:07.469Z,101466.25
2022-12-03T12:43:55.554Z,101478.28
2022-12-03T12:46:48.980Z,101468.97
2022-12-03T12:49:37.529Z,101477.16
2022-12-03T12:52:25.528Z,101458.06
2022-12-03T12:55:15.015Z,101457.28
2022-12-03T12:58:03.807Z,101460.56
2022-12-03T13:00:59.038Z,101463.53
2022-12-03T13:03:49.900Z,101472.53
2022-12-03T13:06:37.495Z,101466.31
2022-12-03T13:09:25.756Z,101471.72
2022-12-03T13:12:20.081Z,101467.94
2022-12-03T13:15:28.687Z,101476.94
2022-12-03T13:18:21.798Z,101478.56
2022-12-03T13:21:26.363Z,101483.78
2022-12-03T13:24:32.587Z,101478.03
2022-12-03T13:27:20.171Z,101478.84
2022-12-03T13:30:07.747Z,101478.03
2022-12-03T13:32:55.393Z,101479.41
2022-12-03T13:35:43.536Z,101482.41
2022-12-03T13:38:33.558Z,101482.69
2022-12-03T13:41:40.056Z,101488.44
2022-12-03T13:44:30.072Z,101481.88
2022-12-03T13:47:22.186Z,101480.53
2022-12-03T13:50:30.973Z,101477.25
2022-12-03T13:53:23.016Z,101483.81
2022-12-03T13:56:24.748Z,101478.63
2022-12-03T13:59:13.033Z,101484.38
2022-12-03T14:02:00.640Z,101481.38
2022-12-03T14:04:55.374Z,101487.34
2022-12-03T14:07:46.175Z,101486.56
2022-12-03T14:10:36.712Z,101487.13
2022-12-03T14:13:24.271Z,101489.00
2022-12-03T14:16:12.042Z,101494.47
2022-12-03T14:18:59.636Z,101488.22
2022-12-03T14:21:47.145Z,101502.41
2022-12-03T14:24:34.673Z,101501.03
2022-12-03T14:27:22.651Z,101504.34
2022-12-03T14:30:10.508Z,101504.06
2022-12-03T14:32:58.161Z,101504.59
2022-12-03T14:35:45.774Z,101502.94
2022-12-03T14:38:35.130Z,101502.41
2022-12-03T14:41:41.225Z,101502.97
2022-12-03T14:44:28.741Z,101510.88
2022-12-03T14:47:17.766Z,101512.25
2022-12-03T14:50:05.595Z,101511.16
2022-12-03T14:52:53.197Z,101512.53
2022-12-03T14:55:40.761Z,101518.53
2022-12-03T14:58:34.496Z,101524.25
2022-12-03T15:01:22.132Z,101530.25
2022-12-03T15:04:12.674Z,101531.34
2022-12-03T15:07:00.390Z,101531.09
2022-12-03T15:09:47.950Z,101534.34
2022-12-03T15:12:35.561Z,101539.28
2022-12-03T15:15:26.943Z,101540.09
2022-12-03T15:18:17.557Z,101546.94
2022-12-03T15:21:07.561Z,101549.38
2022-12-03T15:24:00.648Z,101542.53
2022-12-03T15:26:53.676Z,101539.00
2022-12-03T15:29:43.906Z,101542.84
2022-12-03T15:32:31.651Z,101541.72
2022-12-03T15:35:19.211Z,101543.34
2022-12-03T15:38:06.802Z,101550.47
2022-12-03T15:40:54.338Z,101554.56
2022-12-03T15:43:41.893Z,101552.63
2022-12-03T15:46:29.858Z,101553.47
2022-12-03T15:49:17.420Z,101553.47
2022-12-03T15:52:05.093Z,101558.09
2022-12-03T15:54:56.833Z,101564.66
2022-12-03T15:57:46.994Z,101561.38
2022-12-03T16:00:34.531Z,101566.31
2022-12-03T16:03:22.027Z,101560.81
2022-12-03T16:06:09.582Z,101564.09
2022-12-03T16:08:59.918Z,101564.66
2022-12-03T16:11:47.494Z,101573.38
2022-12-03T16:14:36.559Z,101572.56
2022-12-03T16:17:24.265Z,101571.75
2022-12-03T16:20:11.929Z,101575.28
2022-12-03T16:26:12.314Z,101577.19
2022-12-03T16:28:59.922Z,101569.31
2022-12-03T16:31:47.512Z,101578.00
2022-12-03T16:34:35.035Z,101572.28
2022-12-03T16:37:22.577Z,101569.00
2022-12-03T16:40:13.476Z,101571.75
2022-12-03T16:43:01.185Z,101577.19
2022-12-03T16:46:11.010Z,101570.38
2022-12-03T16:49:01.619Z,101572.56
2022-12-03T16:51:53.178Z,101571.75
2022-12-03T16:54:40.727Z,101575.28
2022-12-03T16:57:33.668Z,101575.03
2022-12-03T17:00:23.275Z,101582.94
2022-12-03T17:03:13.082Z,101592.47
2022-12-03T17:06:04.986Z,101588.41
2022-12-03T17:08:52.664Z,101590.88
2022-12-03T17:11:42.483Z,101602.31
2022-12-03T17:14:33.434Z,101597.13
2022-12-03T17:17:21.167Z,101606.13
2022-12-03T17:20:08.996Z,101605.59
2022-12-03T17:22:57.390Z,101613.50
2022-12-03T17:25:47.377Z,101608.59
2022-12-03T17:28:35.002Z,101618.94
2022-12-03T17:31:22.889Z,101611.59
2022-12-03T17:34:13.404Z,101613.22
2022-12-03T17:37:00.950Z,101620.59
2022-12-03T17:39:48.717Z,101621.16
2022-12-03T17:42:36.923Z,101620.06
2022-12-03T17:45:24.419Z,101621.41
2022-12-03T17:48:12.196Z,101618.72
2022-12-03T17:50:59.833Z,101614.31
2022-12-03T17:53:48.636Z,101614.88
2022-12-03T17:56:39.713Z,101617.03
2022-12-03T17:59:27.242Z,101617.63
2022-12-03T18:02:15.545Z,101616.53
2022-12-03T18:05:04.801Z,101607.25
2022-12-03T18:07:52.506Z,101609.44
2022-12-03T18:10:40.055Z,101607.22
2022-12-03T18:13:27.493Z,101607.53
2022-12-03T18:16:15.346Z,101607.22
2022-12-03T18:19:06.589Z,101610.50
2022-12-03T18:21:55.197Z,101608.34
2022-12-03T18:24:45.019Z,101611.63
2022-12-03T18:27:34.167Z,101603.97
2022-12-03T18:30:21.732Z,101605.34
2022-12-03T18:33:09.211Z,101612.69
2022-12-03T18:35:58.043Z,101608.88
2022-12-03T18:38:46.689Z,101616.22
2022-12-03T18:41:34.451Z,101618.97
2022-12-03T18:44:22.025Z,101617.34
2022-12-03T18:47:17.175Z,101616.25
2022-12-03T18:50:05.727Z,101617.06
2022-12-03T18:52:53.326Z,101625.53
2022-12-03T18:55:41.603Z,101623.63
2022-12-03T18:58:29.140Z,101628.56
2022-12-03T19:01:18.202Z,101624.72
2022-12-03T19:04:05.838Z,101630.44
2022-12-03T19:06:53.473Z,101633.47
2022-12-03T19:09:41.208Z,101631.53
2022-12-03T19:12:31.334Z,101632.88
2022-12-03T19:15:20.844Z,101629.88
2022-12-03T19:18:08.511Z,101634.28
2022-12-03T19:20:56.185Z,101637.03
2022-12-03T19:24:16.125Z,101643.81
2022-12-03T19:26:55.655Z,101648.47
2022-12-03T19:29:47.741Z,101648.19
2022-12-03T19:32:35.559Z,101649.28
2022-12-03T19:35:23.129Z,101646.00
2022-12-03T19:38:10.555Z,101649.56
2022-12-03T19:41:08.496Z,101641.91
2022-12-03T19:43:56.597Z,101644.09
2022-12-03T19:46:44.262Z,101645.47
2022-12-03T19:49:31.808Z,101644.09
2022-12-03T19:52:19.354Z,101643.84
2022-12-03T19:55:07.071Z,101648.19
2022-12-03T19:57:54.576Z,101646.00
2022-12-03T20:00:43.481Z,101650.91
2022-12-03T20:03:31.040Z,101654.22
2022-12-03T20:06:19.647Z,101646.56
2022-12-03T20:09:12.247Z,101641.66
2022-12-03T20:11:59.884Z,101656.38
2022-12-03T20:14:47.420Z,101658.31
2022-12-03T20:17:34.883Z,101663.47
2022-12-03T20:20:22.520Z,101661.06
2022-12-03T20:23:10.037Z,101661.34
2022-12-03T20:25:57.518Z,101660.50
2022-12-03T20:28:45.501Z,101662.72
2022-12-03T20:31:33.057Z,101667.06
2022-12-03T20:34:21.206Z,101674.16
2022-12-03T20:37:08.848Z,101678.53
2022-12-03T20:39:56.547Z,101670.03
2022-12-03T20:42:47.160Z,101667.31
2022-12-03T20:45:34.706Z,101671.97
2022-12-03T20:48:22.389Z,101678.25
2022-12-03T20:51:11.075Z,101673.06
2022-12-03T20:53:59.307Z,101673.59
2022-12-03T20:56:46.808Z,101671.16
2022-12-03T20:59:34.363Z,101664.59
2022-12-03T21:02:21.952Z,101668.16
2022-12-03T21:05:09.727Z,101666.53
2022-12-03T21:07:58.259Z,101665.72
2022-12-03T21:10:45.920Z,101663.53
2022-12-03T21:13:33.433Z,101668.72
2022-12-03T21:16:39.303Z,101662.94
2022-12-03T21:19:27.199Z,101658.59
2022-12-03T21:22:14.719Z,101667.91
2022-12-03T21:25:02.270Z,101665.16
2022-12-03T21:27:49.746Z,101668.16
2022-12-03T21:30:38.170Z,101671.16
2022-12-03T21:33:25.727Z,101665.44
2022-12-03T21:36:17.039Z,101664.88
2022-12-03T21:39:05.457Z,101658.59
2022-12-03T21:42:19.068Z,101661.91
2022-12-03T21:45:00.582Z,101662.44
2022-12-03T21:47:49.211Z,101658.34
2022-12-03T21:50:36.778Z,101662.97
2022-12-03T21:53:24.480Z,101669.00
2022-12-03T21:56:13.323Z,101668.97
2022-12-03T21:59:00.850Z,101656.41
2022-12-03T22:01:48.412Z,101674.44
2022-12-03T22:04:36.019Z,101674.44
2022-12-03T22:07:23.492Z,101669.00
2022-12-03T22:10:11.664Z,101676.09
2022-12-03T22:12:59.287Z,101676.09
2022-12-03T22:15:46.886Z,101667.63
2022-12-03T22:18:34.595Z,101663.78
2022-12-03T22:21:22.188Z,101664.34
2022-12-03T22:24:09.663Z,101671.72
2022-12-03T22:26:57.195Z,101674.69
2022-12-03T22:29:44.591Z,101676.34
2022-12-03T22:32:32.119Z,101671.72
2022-12-03T22:35:19.753Z,101670.34
2022-12-03T22:38:07.266Z,101672.53
2022-12-03T22:40:54.929Z,101665.16
2022-12-03T22:43:42.447Z,101671.97
2022-12-03T22:46:29.950Z,101674.44
2022-12-03T22:49:17.568Z,101672.25
2022-12-03T22:52:05.006Z,101667.88
2022-12-03T22:54:52.537Z,101675.25
2022-12-03T22:57:40.204Z,101663.78
2022-12-03T23:00:30.188Z,101661.34
2022-12-03T23:03:18.041Z,101661.63
2022-12-03T23:06:09.524Z,101668.97
2022-12-03T23:08:57.462Z,101657.22
2022-12-03T23:11:45.695Z,101660.78
2022-12-03T23:14:33.217Z,101652.59
2022-12-03T23:17:20.818Z,101657.50
2022-12-03T23:20:08.605Z,101659.13
2022-12-03T23:22:56.345Z,101655.03
2022-12-03T23:25:43.905Z,101659.94
2022-12-03T23:28:32.596Z,101655.84
2022-12-03T23:31:22.020Z,101659.66
2022-12-03T23:34:09.609Z,101640.81
2022-12-03T23:36:57.142Z,101640.53
2022-12-03T23:39:44.817Z,101638.09
2022-12-03T23:42:32.606Z,101636.16
2022-12-03T23:45:20.302Z,101638.88
2022-12-03T23:48:08.942Z,101642.72
2022-12-03T23:50:56.478Z,101651.72
2022-12-03T23:53:45.038Z,101652.00
2022-12-03T23:56:32.712Z,101657.69
2022-12-03T23:59:20.172Z,101655.56
